createdAt,value
2019-03-21T00:00:49.653Z,306.12
2019-03-21T00:01:48.812Z,307.02
2019-03-21T00:02:48.786Z,305.48
2019-03-21T00:03:48.786Z,306.28
2019-03-21T00:04:48.817Z,306.39
2019-03-21T00:05:48.786Z,306.71
2019-03-21T00:06:48.812Z,305.90
2019-03-21T00:07:49.048Z,306.96
2019-03-21T00:08:48.765Z,306.57
2019-03-21T00:09:49.524Z,307.48
2019-03-21T00:10:48.719Z,306.92
2019-03-21T00:11:49.817Z,306.14
2019-03-21T00:12:48.743Z,306.82
2019-03-21T00:13:48.751Z,307.28
2019-03-21T00:14:50.963Z,307.74
2019-03-21T00:15:49.579Z,306.60
2019-03-21T00:16:48.720Z,306.71
2019-03-21T00:17:48.657Z,306.73
2019-03-21T00:18:48.669Z,307.02
2019-03-21T00:19:49.327Z,306.97
2019-03-21T00:20:48.618Z,306.03
2019-03-21T00:21:48.613Z,305.66
2019-03-21T00:22:48.631Z,305.21
2019-03-21T00:23:49.487Z,306.09
2019-03-21T00:24:48.614Z,305.61
2019-03-21T00:25:48.603Z,307.10
2019-03-21T00:26:48.579Z,305.59
2019-03-21T00:27:48.580Z,305.38
2019-03-21T00:28:48.509Z,305.22
2019-03-21T00:29:49.439Z,305.49
2019-03-21T00:30:48.505Z,305.59
2019-03-21T00:31:48.475Z,305.78
2019-03-21T00:32:48.487Z,305.64
2019-03-21T00:33:48.461Z,305.78
2019-03-21T00:34:48.452Z,306.05
2019-03-21T00:35:50.325Z,306.47
2019-03-21T00:36:48.452Z,305.88
2019-03-21T00:37:48.480Z,305.54
2019-03-21T00:38:48.548Z,305.67
2019-03-21T00:39:48.416Z,306.11
2019-03-21T00:40:48.412Z,306.65
2019-03-21T00:41:48.385Z,305.97
2019-03-21T00:42:48.405Z,307.12
2019-03-21T00:43:49.426Z,306.55
2019-03-21T00:44:50.038Z,306.95
2019-03-21T00:45:48.364Z,306.94
2019-03-21T00:46:48.332Z,306.52
2019-03-21T00:47:48.336Z,306.55
2019-03-21T00:48:48.323Z,306.29
2019-03-21T00:49:48.313Z,307.34
2019-03-21T00:50:48.298Z,306.20
2019-03-21T00:51:48.276Z,306.44
2019-03-21T00:52:48.300Z,305.85
2019-03-21T00:53:48.307Z,306.24
2019-03-21T00:54:48.273Z,306.45
2019-03-21T00:55:48.288Z,306.47
2019-03-21T00:56:48.234Z,306.07
2019-03-21T00:57:48.264Z,307.63
2019-03-21T00:58:48.234Z,308.29
2019-03-21T00:59:48.205Z,306.82
2019-03-21T01:00:48.213Z,307.58
2019-03-21T01:01:48.226Z,308.51
2019-03-21T01:02:48.181Z,307.24
2019-03-21T01:03:48.191Z,306.53
2019-03-21T01:04:48.142Z,306.99
2019-03-21T01:05:48.162Z,306.23
2019-03-21T01:06:48.122Z,307.65
2019-03-21T01:07:48.122Z,307.29
2019-03-21T01:08:48.192Z,307.33
2019-03-21T01:09:48.083Z,306.25
2019-03-21T01:10:48.134Z,306.88
2019-03-21T01:11:48.064Z,307.12
2019-03-21T01:12:48.418Z,306.64
2019-03-21T01:13:48.042Z,307.13
2019-03-21T01:14:48.453Z,307.91
2019-03-21T01:15:48.020Z,306.88
2019-03-21T01:16:48.034Z,307.42
2019-03-21T01:17:48.035Z,306.26
2019-03-21T01:18:48.008Z,307.16
2019-03-21T01:19:48.053Z,306.68
2019-03-21T01:20:48.005Z,306.66
2019-03-21T01:21:47.959Z,306.42
2019-03-21T01:22:48.833Z,306.39
2019-03-21T01:23:48.048Z,306.21
2019-03-21T01:24:47.937Z,306.89
2019-03-21T01:25:47.955Z,305.91
2019-03-21T01:26:48.051Z,305.94
2019-03-21T01:27:47.902Z,305.70
2019-03-21T01:28:47.885Z,305.85
2019-03-21T01:29:47.862Z,305.44
2019-03-21T01:30:47.882Z,305.65
2019-03-21T01:31:47.908Z,306.24
2019-03-21T01:32:47.828Z,306.39
2019-03-21T01:33:47.856Z,306.46
2019-03-21T01:34:47.844Z,306.28
2019-03-21T01:35:47.831Z,305.85
2019-03-21T01:36:47.810Z,306.80
2019-03-21T01:37:47.806Z,305.95
2019-03-21T01:38:47.770Z,305.58
2019-03-21T01:39:47.749Z,306.23
2019-03-21T01:40:47.797Z,305.70
2019-03-21T01:41:47.763Z,306.04
2019-03-21T01:42:47.751Z,305.28
2019-03-21T01:43:47.733Z,305.07
2019-03-21T01:44:47.717Z,305.32
2019-03-21T01:45:47.714Z,305.95
2019-03-21T01:46:47.747Z,305.53
2019-03-21T01:47:47.696Z,305.92
2019-03-21T01:48:47.679Z,305.52
2019-03-21T01:49:47.650Z,305.41
2019-03-21T01:50:47.646Z,305.77
2019-03-21T01:51:47.656Z,306.16
2019-03-21T01:52:47.668Z,306.15
2019-03-21T01:53:47.614Z,305.70
2019-03-21T01:54:47.609Z,305.18
2019-03-21T01:55:47.596Z,305.86
2019-03-21T01:56:47.694Z,305.85
2019-03-21T01:57:47.659Z,305.30
2019-03-21T01:58:47.593Z,305.25
2019-03-21T01:59:47.549Z,305.81
2019-03-21T02:00:47.556Z,306.14
2019-03-21T02:01:47.576Z,305.51
2019-03-21T02:02:47.579Z,304.86
2019-03-21T02:03:47.540Z,304.98
2019-03-21T02:04:47.615Z,305.16
2019-03-21T02:05:47.501Z,305.28
2019-03-21T02:06:47.522Z,304.77
2019-03-21T02:07:47.494Z,305.29
2019-03-21T02:08:47.453Z,305.08
2019-03-21T02:09:47.495Z,305.92
2019-03-21T02:10:47.448Z,305.20
2019-03-21T02:11:47.420Z,305.24
2019-03-21T02:12:47.506Z,305.10
2019-03-21T02:13:47.411Z,305.80
2019-03-21T02:14:52.032Z,304.87
2019-03-21T02:15:50.747Z,304.68
2019-03-21T02:16:47.369Z,304.76
2019-03-21T02:17:47.847Z,305.07
2019-03-21T02:18:47.415Z,305.08
2019-03-21T02:19:47.405Z,304.71
2019-03-21T02:20:47.348Z,305.27
2019-03-21T02:21:47.326Z,305.00
2019-03-21T02:22:47.341Z,305.61
2019-03-21T02:23:47.314Z,305.27
2019-03-21T02:24:47.287Z,305.43
2019-03-21T02:25:47.285Z,306.22
2019-03-21T02:26:47.291Z,306.34
2019-03-21T02:27:47.355Z,306.50
2019-03-21T02:28:47.262Z,306.02
2019-03-21T02:29:47.291Z,305.25
2019-03-21T02:30:47.249Z,305.38
2019-03-21T02:31:47.200Z,305.38
2019-03-21T02:32:47.225Z,305.51
2019-03-21T02:33:47.241Z,305.32
2019-03-21T02:34:47.169Z,304.93
2019-03-21T02:35:47.189Z,305.06
2019-03-21T02:36:47.163Z,304.93
2019-03-21T02:37:47.183Z,305.28
2019-03-21T02:38:47.151Z,305.31
2019-03-21T02:39:58.492Z,306.11
2019-03-21T02:40:48.148Z,305.70
2019-03-21T02:41:47.113Z,306.42
2019-03-21T02:42:47.126Z,306.40
2019-03-21T02:43:47.095Z,306.07
2019-03-21T02:44:47.238Z,306.00
2019-03-21T02:45:47.054Z,306.10
2019-03-21T02:46:47.107Z,306.22
2019-03-21T02:47:47.065Z,305.07
2019-03-21T02:48:47.065Z,305.19
2019-03-21T02:49:47.009Z,305.10
2019-03-21T02:50:47.035Z,304.72
2019-03-21T02:51:46.999Z,304.91
2019-03-21T02:52:47.061Z,305.35
2019-03-21T02:53:46.995Z,305.33
2019-03-21T02:54:47.011Z,305.00
2019-03-21T02:55:46.980Z,305.25
2019-03-21T02:56:46.958Z,305.63
2019-03-21T02:57:46.957Z,305.20
2019-03-21T02:58:46.923Z,305.72
2019-03-21T02:59:46.989Z,305.32
2019-03-21T03:00:46.923Z,305.83
2019-03-21T03:01:46.893Z,305.94
2019-03-21T03:02:46.917Z,305.18
2019-03-21T03:03:46.874Z,306.01
2019-03-21T03:04:46.874Z,306.00
2019-03-21T03:05:46.886Z,305.83
2019-03-21T03:06:46.853Z,305.69
2019-03-21T03:07:46.959Z,305.52
2019-03-21T03:08:46.810Z,305.20
2019-03-21T03:09:46.798Z,306.19
2019-03-21T03:10:46.857Z,305.98
2019-03-21T03:11:46.792Z,306.01
2019-03-21T03:12:46.793Z,305.51
2019-03-21T03:13:46.767Z,305.61
2019-03-21T03:14:47.360Z,305.68
2019-03-21T03:15:46.763Z,306.25
2019-03-21T03:16:46.770Z,305.76
2019-03-21T03:17:46.759Z,306.11
2019-03-21T03:18:46.860Z,306.20
2019-03-21T03:19:46.732Z,306.17
2019-03-21T03:20:46.691Z,307.02
2019-03-21T03:21:46.687Z,306.53
2019-03-21T03:22:46.763Z,306.38
2019-03-21T03:23:46.720Z,306.25
2019-03-21T03:24:46.644Z,306.16
2019-03-21T03:25:46.670Z,306.00
2019-03-21T03:26:46.642Z,305.84
2019-03-21T03:27:46.660Z,306.11
2019-03-21T03:28:46.629Z,305.55
2019-03-21T03:29:46.634Z,305.92
2019-03-21T03:30:46.600Z,306.02
2019-03-21T03:31:46.649Z,305.90
2019-03-21T03:32:46.614Z,306.01
2019-03-21T03:33:46.602Z,305.41
2019-03-21T03:34:46.623Z,305.63
2019-03-21T03:35:46.530Z,305.68
2019-03-21T03:36:46.595Z,305.48
2019-03-21T03:37:46.539Z,306.21
2019-03-21T03:38:46.542Z,306.37
2019-03-21T03:39:46.517Z,306.69
2019-03-21T03:40:46.519Z,306.13
2019-03-21T03:41:46.566Z,306.38
2019-03-21T03:42:46.465Z,306.04
2019-03-21T03:43:46.478Z,306.07
2019-03-21T03:44:46.450Z,306.80
2019-03-21T03:45:46.493Z,305.73
2019-03-21T03:46:47.366Z,305.68
2019-03-21T03:47:46.513Z,306.61
2019-03-21T03:48:46.438Z,306.63
2019-03-21T03:49:46.397Z,305.38
2019-03-21T03:50:46.377Z,305.74
2019-03-21T03:51:46.429Z,305.64
2019-03-21T03:52:46.356Z,305.59
2019-03-21T03:53:46.454Z,305.00
2019-03-21T03:54:46.348Z,306.33
2019-03-21T03:55:46.360Z,304.51
2019-03-21T03:56:46.367Z,305.30
2019-03-21T03:57:46.313Z,306.16
2019-03-21T03:58:46.370Z,306.72
2019-03-21T03:59:46.337Z,306.14
2019-03-21T04:00:46.434Z,306.83
2019-03-21T04:01:46.287Z,306.44
2019-03-21T04:02:46.299Z,306.15
2019-03-21T04:03:46.259Z,305.85
2019-03-21T04:04:46.241Z,305.90
2019-03-21T04:05:46.242Z,306.14
2019-03-21T04:06:46.280Z,306.39
2019-03-21T04:07:46.229Z,306.53
2019-03-21T04:08:46.249Z,306.53
2019-03-21T04:09:46.350Z,306.80
2019-03-21T04:10:46.226Z,307.37
2019-03-21T04:11:46.166Z,306.65
2019-03-21T04:12:46.248Z,307.03
2019-03-21T04:13:46.284Z,307.25
2019-03-21T04:14:46.145Z,306.60
2019-03-21T04:15:52.554Z,306.10
2019-03-21T04:16:47.117Z,305.91
2019-03-21T04:17:46.146Z,306.04
2019-03-21T04:18:46.168Z,306.21
2019-03-21T04:19:46.082Z,306.56
2019-03-21T04:20:46.111Z,306.03
2019-03-21T04:21:46.034Z,306.92
2019-03-21T04:22:46.081Z,305.84
2019-03-21T04:23:46.124Z,306.10
2019-03-21T04:24:46.055Z,306.32
2019-03-21T04:25:46.009Z,306.20
2019-03-21T04:26:46.022Z,306.42
2019-03-21T04:27:46.020Z,306.62
2019-03-21T04:28:45.999Z,306.35
2019-03-21T04:29:46.049Z,306.79
2019-03-21T04:30:45.982Z,306.54
2019-03-21T04:31:45.926Z,306.88
2019-03-21T04:32:45.933Z,306.79
2019-03-21T04:33:46.048Z,306.40
2019-03-21T04:34:45.998Z,305.84
2019-03-21T04:35:45.901Z,306.04
2019-03-21T04:36:45.954Z,305.92
2019-03-21T04:37:45.878Z,305.92
2019-03-21T04:38:45.881Z,307.32
2019-03-21T04:39:45.892Z,306.61
2019-03-21T04:40:45.844Z,306.72
2019-03-21T04:41:46.103Z,307.08
2019-03-21T04:42:45.806Z,306.44
2019-03-21T04:43:45.811Z,306.76
2019-03-21T04:44:45.790Z,306.48
2019-03-21T04:45:45.807Z,307.03
2019-03-21T04:46:45.782Z,306.75
2019-03-21T04:47:45.842Z,306.53
2019-03-21T04:48:45.779Z,306.40
2019-03-21T04:49:46.425Z,306.94
2019-03-21T04:50:45.848Z,307.43
2019-03-21T04:51:45.797Z,307.53
2019-03-21T04:52:45.795Z,307.01
2019-03-21T04:53:45.765Z,307.25
2019-03-21T04:54:45.690Z,307.12
2019-03-21T04:55:45.692Z,308.64
2019-03-21T04:56:45.674Z,307.52
2019-03-21T04:57:45.694Z,307.40
2019-03-21T04:58:45.663Z,306.93
2019-03-21T04:59:46.385Z,307.44
2019-03-21T05:00:45.733Z,307.57
2019-03-21T05:01:45.640Z,307.27
2019-03-21T05:02:45.622Z,307.23
2019-03-21T05:03:46.122Z,307.04
2019-03-21T05:04:46.443Z,308.20
2019-03-21T05:05:46.604Z,307.67
2019-03-21T05:06:46.384Z,307.76
2019-03-21T05:07:45.580Z,307.73
2019-03-21T05:08:45.568Z,307.56
2019-03-21T05:09:45.529Z,307.43
2019-03-21T05:10:45.528Z,307.31
2019-03-21T05:11:45.543Z,307.70
2019-03-21T05:12:45.518Z,307.55
2019-03-21T05:13:45.533Z,307.49
2019-03-21T05:14:45.478Z,307.87
2019-03-21T05:15:45.469Z,307.72
2019-03-21T05:16:45.463Z,306.83
2019-03-21T05:17:45.436Z,307.28
2019-03-21T05:18:45.474Z,307.96
2019-03-21T05:19:45.466Z,307.37
2019-03-21T05:20:45.420Z,307.85
2019-03-21T05:21:45.402Z,307.90
2019-03-21T05:22:45.680Z,307.32
2019-03-21T05:23:45.406Z,307.55
2019-03-21T05:24:45.413Z,308.25
2019-03-21T05:25:45.501Z,307.70
2019-03-21T05:26:45.365Z,307.85
2019-03-21T05:27:45.338Z,307.85
2019-03-21T05:28:46.677Z,308.49
2019-03-21T05:29:51.890Z,308.37
2019-03-21T05:30:46.899Z,307.81
2019-03-21T05:31:45.296Z,308.25
2019-03-21T05:32:45.272Z,308.41
2019-03-21T05:33:45.322Z,307.98
2019-03-21T05:34:45.272Z,308.51
2019-03-21T05:35:45.272Z,307.61
2019-03-21T05:36:45.243Z,308.05
2019-03-21T05:37:45.286Z,307.82
2019-03-21T05:38:45.254Z,308.22
2019-03-21T05:39:45.193Z,308.48
2019-03-21T05:40:45.245Z,307.76
2019-03-21T05:41:45.197Z,307.60
2019-03-21T05:42:45.402Z,308.20
2019-03-21T05:43:46.959Z,308.90
2019-03-21T05:44:51.074Z,308.70
2019-03-21T05:45:52.366Z,308.66
2019-03-21T05:46:47.207Z,309.30
2019-03-21T05:47:49.306Z,308.69
2019-03-21T05:48:45.234Z,308.64
2019-03-21T05:49:45.174Z,308.60
2019-03-21T05:50:45.141Z,309.13
2019-03-21T05:51:45.160Z,309.03
2019-03-21T05:52:45.103Z,309.68
2019-03-21T05:53:45.158Z,309.10
2019-03-21T05:54:45.926Z,309.08
2019-03-21T05:55:45.221Z,309.33
2019-03-21T05:56:45.736Z,309.25
2019-03-21T05:57:45.207Z,309.94
2019-03-21T05:58:45.059Z,309.08
2019-03-21T05:59:45.072Z,309.14
2019-03-21T06:00:45.942Z,308.92
2019-03-21T06:01:44.991Z,309.54
2019-03-21T06:02:45.918Z,310.05
2019-03-21T06:03:49.402Z,308.82
2019-03-21T06:04:46.208Z,309.00
2019-03-21T06:06:05.949Z,309.65
2019-03-21T06:06:46.013Z,309.37
2019-03-21T06:07:45.018Z,309.30
2019-03-21T06:08:46.410Z,309.24
2019-03-21T06:09:46.607Z,309.50
2019-03-21T06:10:47.332Z,310.05
2019-03-21T06:11:46.114Z,309.35
2019-03-21T06:12:46.256Z,309.04
2019-03-21T06:13:46.309Z,309.59
2019-03-21T06:14:47.577Z,309.32
2019-03-21T06:15:47.535Z,309.58
2019-03-21T06:16:49.635Z,308.44
2019-03-21T06:17:46.501Z,309.20
2019-03-21T06:18:44.840Z,309.03
2019-03-21T06:19:46.302Z,309.22
2019-03-21T06:20:47.779Z,308.92
2019-03-21T06:21:44.763Z,309.01
2019-03-21T06:22:44.835Z,309.38
2019-03-21T06:23:44.765Z,308.83
2019-03-21T06:24:44.740Z,309.09
2019-03-21T06:25:44.731Z,308.38
2019-03-21T06:26:45.488Z,308.03
2019-03-21T06:27:45.177Z,307.53
2019-03-21T06:28:44.819Z,308.64
2019-03-21T06:29:44.733Z,308.46
2019-03-21T06:30:44.713Z,307.67
2019-03-21T06:31:44.659Z,308.50
2019-03-21T06:32:44.627Z,308.52
2019-03-21T06:33:44.654Z,308.48
2019-03-21T06:34:44.642Z,308.18
2019-03-21T06:35:45.404Z,308.16
2019-03-21T06:36:44.614Z,308.42
2019-03-21T06:37:44.583Z,308.92
2019-03-21T06:38:44.573Z,309.50
2019-03-21T06:39:44.644Z,308.90
2019-03-21T06:40:44.553Z,308.86
2019-03-21T06:41:44.603Z,308.60
2019-03-21T06:42:44.548Z,309.09
2019-03-21T06:43:44.539Z,308.54
2019-03-21T06:44:44.531Z,308.76
2019-03-21T06:45:48.117Z,307.80
2019-03-21T06:46:49.276Z,308.38
2019-03-21T06:47:45.504Z,309.53
2019-03-21T06:48:44.464Z,309.06
2019-03-21T06:49:46.469Z,308.90
2019-03-21T06:50:44.691Z,308.28
2019-03-21T06:51:44.445Z,308.27
2019-03-21T06:52:44.445Z,308.53
2019-03-21T06:53:44.411Z,308.78
2019-03-21T06:54:44.402Z,308.36
2019-03-21T06:55:44.440Z,307.93
2019-03-21T06:56:44.388Z,307.71
2019-03-21T06:57:44.385Z,308.24
2019-03-21T06:58:44.420Z,308.39
2019-03-21T06:59:44.361Z,307.63
2019-03-21T07:00:44.361Z,308.10
2019-03-21T07:01:44.319Z,307.75
2019-03-21T07:02:44.431Z,308.23
2019-03-21T07:03:44.304Z,308.04
2019-03-21T07:04:44.346Z,307.97
2019-03-21T07:05:44.291Z,308.54
2019-03-21T07:06:44.283Z,308.90
2019-03-21T07:07:44.304Z,308.82
2019-03-21T07:08:44.257Z,307.91
2019-03-21T07:09:44.264Z,306.51
2019-03-21T07:10:44.242Z,307.21
2019-03-21T07:11:44.216Z,307.53
2019-03-21T07:12:44.300Z,307.68
2019-03-21T07:13:44.225Z,307.90
2019-03-21T07:14:44.170Z,307.78
2019-03-21T07:15:44.229Z,307.76
2019-03-21T07:16:44.185Z,307.61
2019-03-21T07:17:44.222Z,307.52
2019-03-21T07:18:44.225Z,307.82
2019-03-21T07:19:44.312Z,307.84
2019-03-21T07:20:44.248Z,307.95
2019-03-21T07:21:44.179Z,307.92
2019-03-21T07:22:44.154Z,308.55
2019-03-21T07:23:44.104Z,308.08
2019-03-21T07:24:44.097Z,307.51
2019-03-21T07:25:44.083Z,308.10
2019-03-21T07:26:45.006Z,308.74
2019-03-21T07:27:44.915Z,308.93
2019-03-21T07:28:44.065Z,307.54
2019-03-21T07:29:44.036Z,307.42
2019-03-21T07:30:44.059Z,307.41
2019-03-21T07:31:45.032Z,307.62
2019-03-21T07:32:44.165Z,308.05
2019-03-21T07:33:44.072Z,307.91
2019-03-21T07:34:45.917Z,307.62
2019-03-21T07:35:44.917Z,307.52
2019-03-21T07:36:44.918Z,307.79
2019-03-21T07:37:44.918Z,307.95
2019-03-21T07:38:44.417Z,307.12
2019-03-21T07:39:44.992Z,307.52
2019-03-21T07:40:46.479Z,307.46
2019-03-21T07:41:44.968Z,307.30
2019-03-21T07:42:44.007Z,308.19
2019-03-21T07:43:49.418Z,308.01
2019-03-21T07:44:45.087Z,307.26
2019-03-21T07:45:43.975Z,307.80
2019-03-21T07:46:44.109Z,308.58
2019-03-21T07:47:44.983Z,307.85
2019-03-21T07:48:43.938Z,308.03
2019-03-21T07:49:43.897Z,307.61
2019-03-21T07:50:43.876Z,307.22
2019-03-21T07:51:45.193Z,308.14
2019-03-21T07:52:43.800Z,307.76
2019-03-21T07:53:43.818Z,308.07
2019-03-21T07:54:43.798Z,307.86
2019-03-21T07:55:43.783Z,308.35
2019-03-21T07:56:43.784Z,307.93
2019-03-21T07:57:44.423Z,307.10
2019-03-21T07:58:44.459Z,307.27
2019-03-21T07:59:44.730Z,306.45
2019-03-21T08:00:43.681Z,306.73
2019-03-21T08:01:43.687Z,306.77
2019-03-21T08:02:43.729Z,307.49
2019-03-21T08:03:44.495Z,308.50
2019-03-21T08:04:43.701Z,307.56
2019-03-21T08:05:43.666Z,306.85
2019-03-21T08:06:43.644Z,306.37
2019-03-21T08:07:43.690Z,307.20
2019-03-21T08:08:46.170Z,306.58
2019-03-21T08:09:43.718Z,306.78
2019-03-21T08:10:44.428Z,306.19
2019-03-21T08:11:46.561Z,306.57
2019-03-21T08:12:43.566Z,305.91
2019-03-21T08:13:43.617Z,306.73
2019-03-21T08:14:44.516Z,306.86
2019-03-21T08:15:43.551Z,306.84
2019-03-21T08:16:45.595Z,307.31
2019-03-21T08:17:45.105Z,307.25
2019-03-21T08:18:46.111Z,307.55
2019-03-21T08:19:45.431Z,307.30
2019-03-21T08:20:43.477Z,306.25
2019-03-21T08:21:43.507Z,306.11
2019-03-21T08:22:45.145Z,306.13
2019-03-21T08:23:43.432Z,306.32
2019-03-21T08:24:43.503Z,307.04
2019-03-21T08:25:44.970Z,308.09
2019-03-21T08:26:44.036Z,306.80
2019-03-21T08:27:44.079Z,307.66
2019-03-21T08:28:43.435Z,307.54
2019-03-21T08:29:43.524Z,307.67
2019-03-21T08:30:43.549Z,307.58
2019-03-21T08:31:43.747Z,307.70
2019-03-21T08:32:43.888Z,307.69
2019-03-21T08:33:43.379Z,306.99
2019-03-21T08:34:43.931Z,306.78
2019-03-21T08:35:43.420Z,306.64
2019-03-21T08:36:43.482Z,306.43
2019-03-21T08:37:43.401Z,307.22
2019-03-21T08:38:43.345Z,306.55
2019-03-21T08:39:43.383Z,307.16
2019-03-21T08:40:43.422Z,306.78
2019-03-21T08:41:43.304Z,306.36
2019-03-21T08:42:44.077Z,305.84
2019-03-21T08:43:43.932Z,306.39
2019-03-21T08:44:43.450Z,306.28
2019-03-21T08:45:43.998Z,306.85
2019-03-21T08:46:44.432Z,306.32
2019-03-21T08:47:43.342Z,306.82
2019-03-21T08:48:43.352Z,306.96
2019-03-21T08:49:43.996Z,307.29
2019-03-21T08:50:43.149Z,306.99
2019-03-21T08:51:43.185Z,307.61
2019-03-21T08:52:43.934Z,306.81
2019-03-21T08:53:44.934Z,306.49
2019-03-21T08:54:43.412Z,307.33
2019-03-21T08:55:43.164Z,307.62
2019-03-21T08:56:43.102Z,307.76
2019-03-21T08:57:43.935Z,306.29
2019-03-21T08:58:44.304Z,307.12
2019-03-21T08:59:43.938Z,307.56
2019-03-21T09:00:43.938Z,308.28
2019-03-21T09:01:43.937Z,308.00
2019-03-21T09:02:43.066Z,307.37
2019-03-21T09:03:43.183Z,306.68
2019-03-21T09:04:44.026Z,307.42
2019-03-21T09:05:44.078Z,307.23
2019-03-21T09:06:44.442Z,307.47
2019-03-21T09:07:43.134Z,306.28
2019-03-21T09:08:43.823Z,306.85
2019-03-21T09:09:43.100Z,306.04
2019-03-21T09:10:42.970Z,305.75
2019-03-21T09:11:43.445Z,305.73
2019-03-21T09:12:42.966Z,305.16
2019-03-21T09:13:43.793Z,305.18
2019-03-21T09:14:43.578Z,306.25
2019-03-21T09:15:42.912Z,306.02
2019-03-21T09:16:43.440Z,306.43
2019-03-21T09:17:42.885Z,306.84
2019-03-21T09:18:43.473Z,306.42
2019-03-21T09:19:42.855Z,305.96
2019-03-21T09:20:42.870Z,306.78
2019-03-21T09:21:42.879Z,307.02
2019-03-21T09:22:42.816Z,306.71
2019-03-21T09:23:42.914Z,306.74
2019-03-21T09:24:42.878Z,311.48
2019-03-21T09:25:42.835Z,305.93
2019-03-21T09:26:43.448Z,311.74
2019-03-21T09:27:45.443Z,306.00
2019-03-21T09:28:48.579Z,310.98
2019-03-21T09:29:53.194Z,305.93
2019-03-21T09:30:44.827Z,305.08
2019-03-21T09:31:44.515Z,305.50
2019-03-21T09:32:42.783Z,306.04
2019-03-21T09:33:49.645Z,305.62
2019-03-21T09:34:43.745Z,305.59
2019-03-21T09:35:43.958Z,305.85
2019-03-21T09:36:42.730Z,305.11
2019-03-21T09:37:42.719Z,305.47
2019-03-21T09:38:42.665Z,305.63
2019-03-21T09:39:42.656Z,305.81
2019-03-21T09:40:43.448Z,305.99
2019-03-21T09:41:47.137Z,306.05
2019-03-21T09:42:44.838Z,305.15
2019-03-21T09:43:42.787Z,305.64
2019-03-21T09:44:43.561Z,305.72
2019-03-21T09:45:43.646Z,305.56
2019-03-21T09:46:50.906Z,305.69
2019-03-21T09:47:43.542Z,305.32
2019-03-21T09:48:42.810Z,305.73
2019-03-21T09:49:42.718Z,306.15
2019-03-21T09:50:43.547Z,305.52
2019-03-21T09:51:43.792Z,305.00
2019-03-21T09:52:42.558Z,305.22
2019-03-21T09:53:42.538Z,306.09
2019-03-21T09:54:42.756Z,305.41
2019-03-21T09:55:43.268Z,310.20
2019-03-21T09:56:43.453Z,310.63
2019-03-21T09:57:42.434Z,305.77
2019-03-21T09:58:58.290Z,304.74
2019-03-21T09:59:43.526Z,310.70
2019-03-21T10:00:42.621Z,311.59
2019-03-21T10:01:42.501Z,306.01
2019-03-21T10:02:42.758Z,306.58
2019-03-21T10:03:42.481Z,305.47
2019-03-21T10:04:42.427Z,310.66
2019-03-21T10:05:43.455Z,311.18
2019-03-21T10:06:42.332Z,310.71
2019-03-21T10:07:42.532Z,311.16
2019-03-21T10:08:42.427Z,310.69
2019-03-21T10:09:42.464Z,310.34
2019-03-21T10:10:42.429Z,310.49
2019-03-21T10:11:42.310Z,304.67
2019-03-21T10:12:43.953Z,310.13
2019-03-21T10:13:42.990Z,309.95
2019-03-21T10:14:42.255Z,310.54
2019-03-21T10:15:42.267Z,310.27
2019-03-21T10:16:42.955Z,309.98
2019-03-21T10:17:42.286Z,304.90
2019-03-21T10:18:42.295Z,309.87
2019-03-21T10:19:42.242Z,303.94
2019-03-21T10:20:42.192Z,310.72
2019-03-21T10:21:43.517Z,305.37
2019-03-21T10:22:42.246Z,310.17
2019-03-21T10:23:42.265Z,304.31
2019-03-21T10:24:42.969Z,310.83
2019-03-21T10:25:42.142Z,310.50
2019-03-21T10:26:42.959Z,310.49
2019-03-21T10:27:42.154Z,310.22
2019-03-21T10:28:42.156Z,309.37
2019-03-21T10:29:42.133Z,309.88
2019-03-21T10:30:42.109Z,309.69
2019-03-21T10:31:42.095Z,309.55
2019-03-21T10:32:42.108Z,309.76
2019-03-21T10:33:42.117Z,310.41
2019-03-21T10:34:43.168Z,309.90
2019-03-21T10:35:42.235Z,310.07
2019-03-21T10:36:42.015Z,309.19
2019-03-21T10:37:42.071Z,309.31
2019-03-21T10:38:43.073Z,309.71
2019-03-21T10:39:42.490Z,309.15
2019-03-21T10:40:41.968Z,309.58
2019-03-21T10:41:41.958Z,310.19
2019-03-21T10:42:42.015Z,310.07
2019-03-21T10:43:41.961Z,310.71
2019-03-21T10:44:42.160Z,309.99
2019-03-21T10:45:41.979Z,309.86
2019-03-21T10:46:41.949Z,310.04
2019-03-21T10:47:41.911Z,310.09
2019-03-21T10:48:41.901Z,309.79
2019-03-21T10:49:41.942Z,303.83
2019-03-21T10:50:41.886Z,309.69
2019-03-21T10:51:42.463Z,304.96
2019-03-21T10:52:41.868Z,310.86
2019-03-21T10:53:41.986Z,304.95
2019-03-21T10:54:41.927Z,309.64
2019-03-21T10:55:42.464Z,310.23
2019-03-21T10:56:41.892Z,309.97
2019-03-21T10:57:41.809Z,310.87
2019-03-21T10:58:41.773Z,309.25
2019-03-21T10:59:41.806Z,309.96
2019-03-21T11:00:41.778Z,309.39
2019-03-21T11:01:41.774Z,309.47
2019-03-21T11:02:41.835Z,310.13
2019-03-21T11:03:41.749Z,309.38
2019-03-21T11:04:41.729Z,309.46
2019-03-21T11:05:41.695Z,309.36
2019-03-21T11:06:41.699Z,310.82
2019-03-21T11:07:42.485Z,311.28
2019-03-21T11:08:42.182Z,310.57
2019-03-21T11:09:41.658Z,310.37
2019-03-21T11:10:41.691Z,310.37
2019-03-21T11:11:41.666Z,310.46
2019-03-21T11:12:41.638Z,310.95
2019-03-21T11:13:42.496Z,311.42
2019-03-21T11:14:41.630Z,310.09
2019-03-21T11:15:41.619Z,310.30
2019-03-21T11:16:41.747Z,309.68
2019-03-21T11:17:41.559Z,309.72
2019-03-21T11:18:41.602Z,309.64
2019-03-21T11:19:42.473Z,304.74
2019-03-21T11:20:41.634Z,310.64
2019-03-21T11:21:42.471Z,305.36
2019-03-21T11:22:41.670Z,305.30
2019-03-21T11:23:41.558Z,305.72
2019-03-21T11:24:41.748Z,311.07
2019-03-21T11:25:41.488Z,310.52
2019-03-21T11:26:41.544Z,310.79
2019-03-21T11:27:41.495Z,310.84
2019-03-21T11:28:42.225Z,311.34
2019-03-21T11:29:41.466Z,311.23
2019-03-21T11:30:42.005Z,310.92
2019-03-21T11:31:41.419Z,311.62
2019-03-21T11:32:41.458Z,304.80
2019-03-21T11:33:41.871Z,306.05
2019-03-21T11:34:41.514Z,305.71
2019-03-21T11:35:41.474Z,306.55
2019-03-21T11:36:41.383Z,304.81
2019-03-21T11:37:41.566Z,309.89
2019-03-21T11:38:42.392Z,310.42
2019-03-21T11:39:41.992Z,310.27
2019-03-21T11:40:41.547Z,310.31
2019-03-21T11:41:41.482Z,310.05
2019-03-21T11:42:41.309Z,310.48
2019-03-21T11:43:42.042Z,310.17
2019-03-21T11:44:42.015Z,309.44
2019-03-21T11:45:41.981Z,304.29
2019-03-21T11:46:42.254Z,309.98
2019-03-21T11:47:42.294Z,305.09
2019-03-21T11:48:41.253Z,309.62
2019-03-21T11:49:41.487Z,304.46
2019-03-21T11:50:41.263Z,309.37
2019-03-21T11:51:41.247Z,304.51
2019-03-21T11:52:42.077Z,309.89
2019-03-21T11:53:41.201Z,303.56
2019-03-21T11:54:41.980Z,304.40
2019-03-21T11:55:41.349Z,310.54
2019-03-21T11:56:41.317Z,310.07
2019-03-21T11:57:41.174Z,304.37
2019-03-21T11:58:41.142Z,310.00
2019-03-21T11:59:51.153Z,305.18
2019-03-21T12:00:43.951Z,310.60
2019-03-21T12:01:41.108Z,311.11
2019-03-21T12:02:42.057Z,305.39
2019-03-21T12:03:41.984Z,306.52
2019-03-21T12:04:42.097Z,306.62
2019-03-21T12:05:41.168Z,304.93
2019-03-21T12:06:41.060Z,310.55
2019-03-21T12:07:41.985Z,309.42
2019-03-21T12:08:41.047Z,309.08
2019-03-21T12:09:41.025Z,309.77
2019-03-21T12:10:41.068Z,309.79
2019-03-21T12:11:41.034Z,303.99
2019-03-21T12:12:40.989Z,303.92
2019-03-21T12:13:40.971Z,304.16
2019-03-21T12:14:42.311Z,303.83
2019-03-21T12:15:41.036Z,303.76
2019-03-21T12:16:41.278Z,304.29
2019-03-21T12:17:40.926Z,304.88
2019-03-21T12:18:40.915Z,304.38
2019-03-21T12:19:40.972Z,303.72
2019-03-21T12:20:41.496Z,304.54
2019-03-21T12:21:40.950Z,304.11
2019-03-21T12:22:41.504Z,304.43
2019-03-21T12:23:40.920Z,305.57
2019-03-21T12:24:40.858Z,306.18
2019-03-21T12:25:40.837Z,305.75
2019-03-21T12:26:41.489Z,306.12
2019-03-21T12:27:41.491Z,306.20
2019-03-21T12:28:40.835Z,306.49